createdAt,value
2023-03-01T00:01:09.847Z,78.20
2023-03-01T00:03:37.548Z,78.40
2023-03-01T00:06:05.942Z,77.10
2023-03-01T00:08:34.379Z,77.90
2023-03-01T00:11:03.262Z,77.90
2023-03-01T00:13:30.826Z,76.50
2023-03-01T00:15:59.112Z,77.10
2023-03-01T00:18:26.718Z,76.30
2023-03-01T00:20:55.061Z,77.10
2023-03-01T00:23:23.268Z,76.20
2023-03-01T00:25:51.507Z,77.40
2023-03-01T00:28:19.996Z,76.00
2023-03-01T00:30:48.035Z,76.40
2023-03-01T00:33:15.659Z,76.50
2023-03-01T00:35:43.312Z,76.40
2023-03-01T00:38:11.195Z,76.00
2023-03-01T00:40:41.314Z,75.30
2023-03-01T00:43:09.793Z,75.50
2023-03-01T00:45:37.486Z,75.70
2023-03-01T00:48:05.262Z,75.70
2023-03-01T00:50:33.666Z,75.80
2023-03-01T00:53:01.331Z,75.70
2023-03-01T00:55:29.467Z,75.50
2023-03-01T00:57:58.032Z,75.60
2023-03-01T01:00:28.893Z,76.10
2023-03-01T01:02:56.549Z,75.80
2023-03-01T01:05:24.279Z,76.20
2023-03-01T01:07:55.317Z,75.50
2023-03-01T01:11:06.997Z,74.20
2023-03-01T01:13:36.598Z,75.30
2023-03-01T01:16:04.748Z,76.00
2023-03-01T01:18:39.563Z,75.90
2023-03-01T01:21:10.448Z,74.50
2023-03-01T01:24:08.202Z,74.90
2023-03-01T01:26:39.874Z,74.60
2023-03-01T01:30:18.381Z,75.90
2023-03-01T01:32:10.067Z,76.60
2023-03-01T01:34:59.538Z,76.10
2023-03-01T01:37:32.763Z,76.50
2023-03-01T01:40:01.329Z,76.70
2023-03-01T01:48:41.790Z,76.60
2023-03-01T01:51:23.419Z,76.00
2023-03-01T01:53:52.980Z,75.00
2023-03-01T02:02:59.307Z,75.00
2023-03-01T02:09:05.363Z,74.90
2023-03-01T02:12:15.227Z,76.50
2023-03-01T02:14:29.241Z,74.70
2023-03-01T02:17:02.154Z,75.10
2023-03-01T02:19:45.317Z,74.80
2023-03-01T02:23:10.682Z,75.50
2023-03-01T02:28:50.846Z,75.30
2023-03-01T02:31:51.454Z,76.50
2023-03-01T02:34:23.862Z,76.30
2023-03-01T02:37:07.117Z,75.00
2023-03-01T02:39:39.390Z,75.00
2023-03-01T02:42:08.346Z,74.00
2023-03-01T02:44:36.698Z,73.30
2023-03-01T02:47:06.289Z,73.70
2023-03-01T02:49:35.985Z,74.10
2023-03-01T02:52:04.926Z,73.90
2023-03-01T02:54:44.824Z,73.20
2023-03-01T02:57:13.892Z,73.50
2023-03-01T02:59:43.374Z,73.20
2023-03-01T03:02:45.771Z,73.40
2023-03-01T03:05:40.411Z,72.80
2023-03-01T03:08:14.631Z,72.70
2023-03-01T03:10:52.785Z,72.90
2023-03-01T03:16:43.298Z,71.60
2023-03-01T03:19:16.543Z,71.30
2023-03-01T03:21:56.915Z,70.90
2023-03-01T03:24:26.859Z,71.30
2023-03-01T03:26:55.110Z,70.90
2023-03-01T03:29:23.555Z,70.80
2023-03-01T03:31:54.864Z,70.50
2023-03-01T03:34:57.449Z,70.00
2023-03-01T03:40:43.325Z,69.90
2023-03-01T03:43:15.148Z,69.60
2023-03-01T03:45:43.534Z,69.40
2023-03-01T03:48:11.566Z,69.50
2023-03-01T03:50:40.357Z,69.40
2023-03-01T03:53:09.886Z,69.60
2023-03-01T03:55:41.007Z,69.40
2023-03-01T03:58:10.091Z,70.30
2023-03-01T04:00:39.847Z,69.30
2023-03-01T04:04:09.488Z,69.20
2023-03-01T04:07:22.350Z,68.80
2023-03-01T04:09:55.337Z,68.90
2023-03-01T04:12:25.162Z,68.70
2023-03-01T04:14:53.796Z,68.60
2023-03-01T04:17:21.398Z,68.10
2023-03-01T04:19:50.617Z,68.60
2023-03-01T04:22:19.589Z,67.30
2023-03-01T04:24:47.126Z,67.30
2023-03-01T04:27:15.499Z,67.20
2023-03-01T04:29:54.804Z,66.60
2023-03-01T04:32:27.361Z,66.90
2023-03-01T04:34:59.211Z,65.50
2023-03-01T04:37:27.147Z,66.00
2023-03-01T04:39:55.559Z,65.10
2023-03-01T04:42:23.450Z,65.40
2023-03-01T04:44:52.561Z,66.00
2023-03-01T04:47:20.484Z,65.80
2023-03-01T04:49:48.301Z,65.70
2023-03-01T04:52:17.133Z,64.70
2023-03-01T04:54:51.158Z,65.30
2023-03-01T04:57:19.092Z,65.00
2023-03-01T04:59:46.833Z,65.10
2023-03-01T05:02:15.138Z,65.40
2023-03-01T05:04:45.779Z,65.40
2023-03-01T05:07:30.555Z,64.90
2023-03-01T05:10:16.533Z,64.90
2023-03-01T05:17:10.947Z,64.40
2023-03-01T05:23:00.617Z,63.80
2023-03-01T05:25:28.514Z,62.50
2023-03-01T05:27:56.114Z,62.40
2023-03-01T05:30:23.893Z,60.50
2023-03-01T05:32:57.034Z,62.60
2023-03-01T05:35:26.176Z,61.40
2023-03-01T05:37:53.824Z,60.90
2023-03-01T05:40:22.729Z,60.60
2023-03-01T05:42:51.651Z,61.50
2023-03-01T05:45:19.512Z,61.20
2023-03-01T05:47:48.076Z,59.10
2023-03-01T05:50:20.199Z,60.40
2023-03-01T05:52:49.684Z,60.10
2023-03-01T05:55:18.360Z,61.20
2023-03-01T05:57:45.930Z,60.70
2023-03-01T06:00:14.492Z,60.90
2023-03-01T06:02:42.171Z,60.00
2023-03-01T06:05:11.206Z,62.00
2023-03-01T06:07:39.982Z,62.10
2023-03-01T06:10:08.422Z,55.20
2023-03-01T06:12:36.972Z,59.40
2023-03-01T06:15:06.001Z,58.40
2023-03-01T06:17:38.756Z,59.70
2023-03-01T06:20:26.583Z,59.70
2023-03-01T06:22:54.725Z,59.10
2023-03-01T06:25:24.039Z,58.70
2023-03-01T06:27:57.530Z,59.40
2023-03-01T06:30:25.843Z,58.60
2023-03-01T06:32:53.842Z,58.20
2023-03-01T06:35:22.511Z,58.10
2023-03-01T06:37:53.443Z,55.30
2023-03-01T06:40:23.670Z,52.70
2023-03-01T06:42:52.037Z,53.40
2023-03-01T06:45:23.449Z,55.30
2023-03-01T06:47:51.150Z,53.80
2023-03-01T06:50:19.238Z,55.80
2023-03-01T06:55:14.318Z,55.60
2023-03-01T06:57:42.430Z,56.60
2023-03-01T07:00:13.457Z,53.90
2023-03-01T07:02:41.102Z,52.20
2023-03-01T07:05:10.068Z,57.30
2023-03-01T07:07:37.823Z,55.40
2023-03-01T07:10:08.206Z,54.90
2023-03-01T07:12:36.133Z,56.40
2023-03-01T07:15:04.261Z,55.70
2023-03-01T07:17:31.924Z,53.90
2023-03-01T07:19:59.571Z,54.70
2023-03-01T07:22:27.289Z,53.60
2023-03-01T07:24:55.794Z,55.00
2023-03-01T07:27:23.442Z,55.10
2023-03-01T07:29:51.992Z,54.80
2023-03-01T07:32:23.265Z,54.10
2023-03-01T07:34:52.556Z,55.10
2023-03-01T07:37:20.207Z,54.30
2023-03-01T07:39:47.847Z,51.90
2023-03-01T07:42:16.904Z,53.40
2023-03-01T07:44:47.116Z,54.40
2023-03-01T07:47:14.705Z,54.40
2023-03-01T07:49:44.288Z,53.80
2023-03-01T07:52:14.840Z,54.40
2023-03-01T07:54:44.834Z,54.10
2023-03-01T07:57:12.548Z,53.30
2023-03-01T08:00:02.718Z,54.20
2023-03-01T08:02:32.748Z,55.50
2023-03-01T08:05:01.848Z,54.30
2023-03-01T08:07:29.535Z,55.80
2023-03-01T08:09:57.366Z,55.90
2023-03-01T08:12:25.301Z,53.70
2023-03-01T08:14:53.654Z,54.00
2023-03-01T08:17:22.027Z,52.30
2023-03-01T08:19:51.248Z,54.70
2023-03-01T08:22:21.473Z,52.70
2023-03-01T08:24:49.505Z,54.30
2023-03-01T08:27:18.631Z,48.90
2023-03-01T08:29:46.272Z,53.50
2023-03-01T08:32:14.124Z,53.70
2023-03-01T08:34:42.588Z,55.40
2023-03-01T08:37:11.059Z,52.80
2023-03-01T08:39:39.494Z,53.30
2023-03-01T08:42:08.606Z,52.80
2023-03-01T08:44:36.386Z,51.20
2023-03-01T08:47:05.797Z,52.90
2023-03-01T08:49:42.743Z,52.10
2023-03-01T08:52:10.516Z,49.30
2023-03-01T08:54:43.353Z,51.40
2023-03-01T08:57:14.498Z,52.20
2023-03-01T08:59:42.183Z,52.20
2023-03-01T09:02:18.132Z,51.10
2023-03-01T09:04:47.011Z,52.10
2023-03-01T09:07:19.697Z,53.30
2023-03-01T09:09:47.554Z,52.50
2023-03-01T09:12:15.955Z,52.30
2023-03-01T09:14:43.978Z,51.30
2023-03-01T09:17:11.567Z,51.50
2023-03-01T09:19:39.453Z,52.70
2023-03-01T09:22:07.855Z,51.70
2023-03-01T09:24:36.309Z,52.40
2023-03-01T09:27:05.173Z,52.70
2023-03-01T09:29:33.521Z,52.20
2023-03-01T09:32:04.836Z,52.00
2023-03-01T09:34:33.606Z,51.70
2023-03-01T09:37:08.259Z,51.80
2023-03-01T09:39:42.593Z,51.80
2023-03-01T09:42:14.639Z,52.00
2023-03-01T09:47:25.868Z,52.30
2023-03-01T09:50:11.353Z,52.00
2023-03-01T09:52:42.607Z,52.10
2023-03-01T09:55:14.706Z,52.50
2023-03-01T09:57:48.421Z,51.70
2023-03-01T10:00:32.321Z,53.20
2023-03-01T10:03:04.650Z,52.50
2023-03-01T10:05:38.073Z,52.80
2023-03-01T10:11:34.016Z,52.40
2023-03-01T10:14:14.650Z,53.00
2023-03-01T10:16:42.216Z,53.20
2023-03-01T10:19:13.448Z,53.60
2023-03-01T10:21:44.488Z,53.50
2023-03-01T10:24:14.473Z,53.70
2023-03-01T10:26:49.382Z,55.50
2023-03-01T10:29:17.104Z,55.00
2023-03-01T10:31:47.040Z,54.30
2023-03-01T10:34:17.102Z,54.30
2023-03-01T10:36:46.014Z,53.90
2023-03-01T10:39:15.411Z,54.30
2023-03-01T10:42:09.218Z,53.90
2023-03-01T10:44:47.190Z,53.90
2023-03-01T10:47:17.169Z,53.20
2023-03-01T10:49:55.752Z,54.50
2023-03-01T10:52:25.019Z,54.70
2023-03-01T10:54:57.046Z,55.00
2023-03-01T10:57:44.916Z,55.40
2023-03-01T11:00:18.960Z,55.10
2023-03-01T11:02:51.395Z,55.00
2023-03-01T11:05:21.401Z,55.30
2023-03-01T11:07:54.350Z,55.70
2023-03-01T11:10:26.927Z,55.90
2023-03-01T11:12:55.705Z,55.70
2023-03-01T11:15:26.263Z,55.80
2023-03-01T11:18:02.868Z,56.10
2023-03-01T11:20:38.886Z,56.20
2023-03-01T11:23:10.425Z,56.50
2023-03-01T11:25:40.321Z,56.60
2023-03-01T11:28:10.284Z,56.70
2023-03-01T11:30:41.542Z,56.80
2023-03-01T11:33:31.581Z,57.00
2023-03-01T11:36:02.852Z,57.10
2023-03-01T11:38:36.099Z,57.30
2023-03-01T11:41:05.969Z,57.40
2023-03-01T11:43:40.386Z,57.70
2023-03-01T11:46:12.564Z,57.80
2023-03-01T11:48:50.074Z,57.90
2023-03-01T11:51:37.616Z,58.10
2023-03-01T11:54:16.433Z,58.20
2023-03-01T11:56:48.099Z,58.40
2023-03-01T11:59:15.598Z,58.40
2023-03-01T12:02:02.300Z,58.60
2023-03-01T12:04:32.874Z,58.60
2023-03-01T12:07:06.913Z,58.70
2023-03-01T12:09:34.410Z,58.80
2023-03-01T12:12:08.973Z,58.90
2023-03-01T12:14:39.768Z,59.00
2023-03-01T12:17:10.841Z,59.00
2023-03-01T12:19:51.399Z,59.00
2023-03-01T12:22:24.960Z,59.10
2023-03-01T12:25:07.799Z,59.20
2023-03-01T12:27:53.715Z,59.30
2023-03-01T12:30:34.620Z,59.30
2023-03-01T12:33:03.244Z,59.40
2023-03-01T12:35:32.421Z,59.50
2023-03-01T12:38:18.518Z,59.50
2023-03-01T12:40:49.601Z,59.50
2023-03-01T12:43:30.302Z,59.60
2023-03-01T12:46:22.482Z,59.50
2023-03-01T12:49:08.628Z,59.50
2023-03-01T12:51:37.461Z,59.60
2023-03-01T12:54:28.240Z,59.60
2023-03-01T12:56:56.918Z,59.60
2023-03-01T12:59:25.236Z,59.60
2023-03-01T13:01:52.814Z,59.60
2023-03-01T13:04:29.413Z,59.60
2023-03-01T13:07:00.885Z,59.70
2023-03-01T13:09:28.946Z,59.60
2023-03-01T13:11:57.258Z,59.70
2023-03-01T13:14:24.703Z,59.70
2023-03-01T13:16:55.163Z,59.80
2023-03-01T13:19:23.844Z,59.70
2023-03-01T13:21:52.662Z,59.80
2023-03-01T13:24:29.876Z,59.70
2023-03-01T13:27:10.634Z,59.80
2023-03-01T13:29:49.605Z,59.80
2023-03-01T13:32:37.904Z,60.00
2023-03-01T13:35:10.605Z,59.90
2023-03-01T13:37:39.150Z,59.90
2023-03-01T13:40:24.404Z,60.00
2023-03-01T13:43:04.843Z,60.00
2023-03-01T13:45:35.985Z,60.10
2023-03-01T13:48:06.233Z,60.10
2023-03-01T13:50:42.461Z,60.10
2023-03-01T13:53:12.941Z,60.10
2023-03-01T13:55:44.853Z,60.20
2023-03-01T13:58:19.250Z,60.20
2023-03-01T14:00:47.754Z,60.20
2023-03-01T14:03:17.213Z,60.20
2023-03-01T14:06:14.657Z,60.20
2023-03-01T14:08:43.426Z,60.20
2023-03-01T14:11:29.656Z,60.20
2023-03-01T14:14:08.268Z,60.30
2023-03-01T14:16:35.834Z,60.30
2023-03-01T14:19:10.198Z,60.30
2023-03-01T14:21:38.200Z,60.60
2023-03-01T14:24:05.820Z,60.80
2023-03-01T14:26:35.218Z,61.00
2023-03-01T14:29:03.400Z,61.20
2023-03-01T14:31:51.978Z,61.30
2023-03-01T14:34:24.270Z,61.40
2023-03-01T14:36:51.902Z,61.60
2023-03-01T14:39:27.633Z,61.60
2023-03-01T14:41:56.239Z,61.70
2023-03-01T14:44:26.007Z,62.60
2023-03-01T14:46:57.276Z,62.10
2023-03-01T14:49:27.258Z,62.20
2023-03-01T14:51:54.760Z,62.40
2023-03-01T14:54:29.813Z,62.50
2023-03-01T14:57:01.060Z,62.70
2023-03-01T14:59:29.137Z,62.80
2023-03-01T15:01:57.712Z,63.00
2023-03-01T15:04:26.044Z,63.30
2023-03-01T15:06:55.376Z,63.50
2023-03-01T15:09:23.591Z,63.60
2023-03-01T15:11:51.152Z,63.60
2023-03-01T15:14:42.241Z,63.90
2023-03-01T15:17:35.616Z,63.90
2023-03-01T15:20:05.422Z,64.00
2023-03-01T15:22:33.174Z,64.20
2023-03-01T15:25:00.830Z,64.40
2023-03-01T15:27:28.874Z,64.40
2023-03-01T15:30:01.643Z,63.80
2023-03-01T15:32:33.450Z,64.00
2023-03-01T15:35:01.689Z,64.00
2023-03-01T15:37:55.318Z,63.90
2023-03-01T15:40:32.664Z,63.90
2023-03-01T15:43:01.908Z,63.80
2023-03-01T15:45:31.191Z,63.70
2023-03-01T15:48:03.063Z,64.20
2023-03-01T15:50:41.166Z,64.70
2023-03-01T15:53:12.379Z,64.80
2023-03-01T15:55:39.914Z,64.80
2023-03-01T15:58:11.126Z,64.00
2023-03-01T16:00:44.064Z,63.80
2023-03-01T16:03:23.399Z,64.10
2023-03-01T16:05:51.225Z,64.00
2023-03-01T16:08:19.212Z,63.90
2023-03-01T16:10:47.581Z,63.50
2023-03-01T16:13:15.112Z,63.40
2023-03-01T16:15:45.329Z,63.70
2023-03-01T16:18:13.099Z,63.80
2023-03-01T16:20:42.126Z,63.60
2023-03-01T16:23:11.989Z,63.40
2023-03-01T16:25:39.500Z,63.50
2023-03-01T16:28:10.419Z,64.00
2023-03-01T16:30:39.203Z,63.90
2023-03-01T16:33:24.498Z,64.00
2023-03-01T16:35:54.229Z,63.90
2023-03-01T16:38:22.966Z,63.70
2023-03-01T16:40:51.314Z,64.00
2023-03-01T16:43:19.689Z,63.70
2023-03-01T16:45:47.959Z,64.50
2023-03-01T16:48:15.920Z,64.40
2023-03-01T16:50:43.433Z,64.30
2023-03-01T16:53:11.080Z,63.90
2023-03-01T16:55:39.155Z,64.10
2023-03-01T16:58:06.901Z,64.30
2023-03-01T17:00:34.733Z,64.30
2023-03-01T17:03:02.327Z,64.40
2023-03-01T17:05:29.907Z,64.70
2023-03-01T17:07:58.298Z,65.10
2023-03-01T17:10:25.887Z,64.90
2023-03-01T17:12:53.412Z,64.80
2023-03-01T17:15:20.910Z,65.30
2023-03-01T17:17:52.215Z,65.00
2023-03-01T17:20:22.999Z,65.20
2023-03-01T17:22:50.522Z,64.60
2023-03-01T17:25:18.133Z,65.40
2023-03-01T17:27:45.753Z,64.70
2023-03-01T17:30:14.222Z,64.90
2023-03-01T17:32:42.061Z,64.70
2023-03-01T17:35:12.235Z,65.10
2023-03-01T17:37:40.999Z,66.20
2023-03-01T17:40:08.850Z,66.60
2023-03-01T17:42:37.125Z,66.50
2023-03-01T17:45:04.875Z,66.00
2023-03-01T17:47:33.171Z,66.30
2023-03-01T17:50:00.713Z,66.30
2023-03-01T17:52:28.255Z,66.70
2023-03-01T17:54:55.740Z,66.30
2023-03-01T17:57:23.229Z,65.80
2023-03-01T17:59:51.552Z,66.10
2023-03-01T18:02:20.709Z,67.70
2023-03-01T18:04:49.085Z,66.70
2023-03-01T18:07:17.388Z,66.60
2023-03-01T18:09:44.948Z,67.10
2023-03-01T18:12:12.440Z,66.90
2023-03-01T18:14:40.447Z,67.00
2023-03-01T18:17:12.170Z,67.70
2023-03-01T18:19:41.562Z,67.60
2023-03-01T18:22:09.698Z,66.80
2023-03-01T18:24:37.740Z,67.80
2023-03-01T18:27:05.329Z,67.10
2023-03-01T18:29:32.983Z,67.90
2023-03-01T18:32:00.558Z,68.90
2023-03-01T18:34:29.006Z,68.80
2023-03-01T18:37:08.675Z,68.70
2023-03-01T18:39:37.056Z,67.90
2023-03-01T18:42:04.726Z,67.50
2023-03-01T18:44:36.193Z,68.00
2023-03-01T18:47:03.853Z,67.60
2023-03-01T18:49:31.545Z,67.40
2023-03-01T18:51:59.111Z,67.20
2023-03-01T18:54:26.691Z,68.60
2023-03-01T18:56:55.142Z,68.20
2023-03-01T18:59:22.933Z,69.30
2023-03-01T19:01:50.616Z,69.60
2023-03-01T19:04:18.263Z,70.10
2023-03-01T19:06:45.832Z,69.80
2023-03-01T19:09:13.395Z,68.30
2023-03-01T19:11:41.265Z,68.40
2023-03-01T19:14:09.000Z,69.10
2023-03-01T19:16:36.953Z,68.50
2023-03-01T19:19:05.565Z,70.00
2023-03-01T19:21:33.563Z,68.80
2023-03-01T19:24:02.733Z,71.10
2023-03-01T19:26:30.929Z,71.00
2023-03-01T19:28:58.853Z,70.00
2023-03-01T19:31:28.869Z,71.50
2023-03-01T19:34:09.913Z,70.50
2023-03-01T19:36:38.817Z,69.20
2023-03-01T19:39:07.500Z,69.20
2023-03-01T19:41:35.368Z,68.90
2023-03-01T19:44:04.847Z,70.90
2023-03-01T19:46:33.438Z,70.00
2023-03-01T19:49:03.370Z,68.70
2023-03-01T19:51:33.536Z,69.30
2023-03-01T19:54:01.896Z,69.60
2023-03-01T19:56:30.160Z,70.30
2023-03-01T19:59:01.405Z,69.40
2023-03-01T20:01:30.040Z,70.30
2023-03-01T20:03:57.747Z,71.40
2023-03-01T20:06:25.954Z,70.20
2023-03-01T20:08:53.698Z,70.50
2023-03-01T20:11:21.662Z,73.20
2023-03-01T20:13:49.248Z,71.50
2023-03-01T20:16:17.882Z,71.40
2023-03-01T20:18:45.437Z,72.40
2023-03-01T20:21:23.669Z,71.10
2023-03-01T20:23:52.381Z,71.50
2023-03-01T20:26:20.799Z,72.90
2023-03-01T20:28:49.447Z,71.80
2023-03-01T20:31:18.119Z,71.50
2023-03-01T20:33:45.757Z,71.00
2023-03-01T20:36:13.314Z,69.80
2023-03-01T20:38:40.931Z,70.80
2023-03-01T20:41:09.746Z,70.80
2023-03-01T20:43:37.617Z,71.80
2023-03-01T20:46:05.844Z,71.60
2023-03-01T20:48:33.567Z,71.40
2023-03-01T20:51:05.505Z,71.80
2023-03-01T20:53:33.501Z,70.20
2023-03-01T20:56:05.774Z,72.00
2023-03-01T20:58:34.044Z,71.90
2023-03-01T21:01:02.114Z,71.80
2023-03-01T21:03:29.871Z,70.70
2023-03-01T21:05:57.972Z,70.90
2023-03-01T21:08:25.894Z,71.70
2023-03-01T21:10:54.028Z,72.90
2023-03-01T21:13:22.818Z,73.50
2023-03-01T21:15:57.064Z,72.00
2023-03-01T21:18:30.134Z,71.40
2023-03-01T21:21:01.532Z,71.40
2023-03-01T21:23:29.780Z,73.40
2023-03-01T21:26:01.232Z,73.50
2023-03-01T21:28:32.542Z,71.90
2023-03-01T21:31:11.699Z,71.70
2023-03-01T21:33:39.938Z,72.40
2023-03-01T21:36:08.751Z,72.40
2023-03-01T21:38:37.866Z,72.40
2023-03-01T21:41:09.707Z,72.00
2023-03-01T21:43:37.738Z,72.40
2023-03-01T21:46:06.290Z,72.70
2023-03-01T21:48:33.881Z,72.50
2023-03-01T21:51:02.259Z,74.70
2023-03-01T21:53:32.434Z,72.10
2023-03-01T21:56:00.354Z,72.70
2023-03-01T21:58:29.232Z,73.40
2023-03-01T22:00:56.862Z,73.60
2023-03-01T22:03:25.727Z,74.00
2023-03-01T22:06:00.928Z,72.90
2023-03-01T22:08:29.688Z,72.80
2023-03-01T22:10:57.195Z,75.10
2023-03-01T22:13:24.868Z,75.00
2023-03-01T22:15:52.536Z,72.70
2023-03-01T22:18:20.160Z,73.10
2023-03-01T22:20:47.632Z,73.00
2023-03-01T22:23:16.000Z,74.50
2023-03-01T22:25:43.678Z,73.10
2023-03-01T22:28:11.494Z,72.10
2023-03-01T22:30:39.118Z,73.10
2023-03-01T22:33:06.653Z,72.80
2023-03-01T22:35:34.236Z,73.00
2023-03-01T22:38:02.269Z,72.10
2023-03-01T22:40:29.791Z,74.20
2023-03-01T22:42:58.001Z,74.80
2023-03-01T22:45:25.672Z,76.20
2023-03-01T22:47:53.215Z,75.60
2023-03-01T22:50:20.823Z,74.30
2023-03-01T22:52:48.382Z,74.30
2023-03-01T22:55:15.935Z,72.60
2023-03-01T22:57:43.442Z,73.20
2023-03-01T23:00:14.136Z,73.20
2023-03-01T23:02:41.979Z,73.30
2023-03-01T23:05:10.298Z,73.70
2023-03-01T23:07:38.118Z,74.50
2023-03-01T23:10:05.929Z,73.00
2023-03-01T23:12:33.557Z,73.20
2023-03-01T23:15:01.176Z,73.10
2023-03-01T23:17:28.732Z,73.90
2023-03-01T23:19:56.249Z,75.30
2023-03-01T23:22:23.759Z,74.20
2023-03-01T23:24:51.366Z,73.80
2023-03-01T23:27:19.752Z,74.50
2023-03-01T23:29:47.394Z,75.40
2023-03-01T23:32:15.912Z,75.50
2023-03-01T23:34:44.836Z,75.80
2023-03-01T23:37:13.281Z,75.90
2023-03-01T23:39:41.897Z,75.80
2023-03-01T23:42:09.467Z,74.90
2023-03-01T23:44:39.139Z,74.40
2023-03-01T23:47:07.538Z,74.10
2023-03-01T23:49:35.038Z,75.30
2023-03-01T23:52:02.598Z,75.30
2023-03-01T23:54:30.141Z,74.20
2023-03-01T23:56:58.567Z,73.90
2023-03-01T23:59:26.496Z,74.20
